sensor_id;sensor_type;location;lat;lon;timestamp;pressure;altitude;pressure_sealevel;temperature
76394;BMP180;65216;51.090;-115.352;2023-05-10T00:00:46;86895.20;;;22.40
76394;BMP180;65216;51.090;-115.352;2023-05-10T00:03:13;86878.40;;;22.40
76394;BMP180;65216;51.090;-115.352;2023-05-10T00:05:43;86878.80;;;22.40
76394;BMP180;65216;51.090;-115.352;2023-05-10T00:08:12;86876.80;;;22.40
76394;BMP180;65216;51.090;-115.352;2023-05-10T00:10:42;86875.80;;;22.40
76394;BMP180;65216;51.090;-115.352;2023-05-10T00:13:09;86868.20;;;22.40
76394;BMP180;65216;51.090;-115.352;2023-05-10T00:15:36;86875.20;;;22.40
76394;BMP180;65216;51.090;-115.352;2023-05-10T00:18:03;86893.20;;;22.40
76394;BMP180;65216;51.090;-115.352;2023-05-10T00:20:30;86883.80;;;22.42
76394;BMP180;65216;51.090;-115.352;2023-05-10T00:22:59;86894.20;;;22.50
76394;BMP180;65216;51.090;-115.352;2023-05-10T00:25:31;86886.60;;;22.50
76394;BMP180;65216;51.090;-115.352;2023-05-10T00:27:58;86891.20;;;22.50
76394;BMP180;65216;51.090;-115.352;2023-05-10T00:30:28;86886.20;;;22.50
76394;BMP180;65216;51.090;-115.352;2023-05-10T00:32:55;86872.60;;;22.50
76394;BMP180;65216;51.090;-115.352;2023-05-10T00:35:22;86876.00;;;22.50
76394;BMP180;65216;51.090;-115.352;2023-05-10T00:37:49;86867.20;;;22.50
76394;BMP180;65216;51.090;-115.352;2023-05-10T00:40:16;86862.60;;;22.50
76394;BMP180;65216;51.090;-115.352;2023-05-10T00:42:47;86862.20;;;22.50
76394;BMP180;65216;51.090;-115.352;2023-05-10T00:45:13;86871.80;;;22.50
76394;BMP180;65216;51.090;-115.352;2023-05-10T00:47:44;86873.60;;;22.50
76394;BMP180;65216;51.090;-115.352;2023-05-10T00:50:11;86861.60;;;22.50
76394;BMP180;65216;51.090;-115.352;2023-05-10T00:52:38;86868.20;;;22.50
76394;BMP180;65216;51.090;-115.352;2023-05-10T00:55:07;86861.00;;;22.50
76394;BMP180;65216;51.090;-115.352;2023-05-10T00:57:37;86856.20;;;22.50
76394;BMP180;65216;51.090;-115.352;2023-05-10T01:00:07;86852.80;;;22.50
76394;BMP180;65216;51.090;-115.352;2023-05-10T01:02:35;86870.80;;;22.50
76394;BMP180;65216;51.090;-115.352;2023-05-10T01:05:07;86868.20;;;22.50
76394;BMP180;65216;51.090;-115.352;2023-05-10T01:07:34;86860.60;;;22.56
76394;BMP180;65216;51.090;-115.352;2023-05-10T01:10:10;86856.40;;;22.60
76394;BMP180;65216;51.090;-115.352;2023-05-10T01:12:41;86867.40;;;22.60
76394;BMP180;65216;51.090;-115.352;2023-05-10T01:15:11;86864.00;;;22.60
76394;BMP180;65216;51.090;-115.352;2023-05-10T01:17:40;86874.40;;;22.60
76394;BMP180;65216;51.090;-115.352;2023-05-10T01:20:09;86869.40;;;22.60
76394;BMP180;65216;51.090;-115.352;2023-05-10T01:23:16;86869.60;;;22.60
76394;BMP180;65216;51.090;-115.352;2023-05-10T01:26:24;86868.20;;;22.60
76394;BMP180;65216;51.090;-115.352;2023-05-10T01:40:57;86875.60;;;22.50
76394;BMP180;65216;51.090;-115.352;2023-05-10T01:43:40;86886.20;;;22.50
76394;BMP180;65216;51.090;-115.352;2023-05-10T01:46:17;86883.60;;;22.50
76394;BMP180;65216;51.090;-115.352;2023-05-10T01:48:55;86887.80;;;22.46
76394;BMP180;65216;51.090;-115.352;2023-05-10T01:51:29;86881.00;;;22.46
76394;BMP180;65216;51.090;-115.352;2023-05-10T01:54:04;86889.40;;;22.42
76394;BMP180;65216;51.090;-115.352;2023-05-10T01:56:35;86885.00;;;22.40
76394;BMP180;65216;51.090;-115.352;2023-05-10T01:59:11;86882.00;;;22.40
76394;BMP180;65216;51.090;-115.352;2023-05-10T02:01:40;86882.80;;;22.40
76394;BMP180;65216;51.090;-115.352;2023-05-10T02:04:11;86913.40;;;22.40
76394;BMP180;65216;51.090;-115.352;2023-05-10T02:06:47;86907.00;;;22.40
76394;BMP180;65216;51.090;-115.352;2023-05-10T02:09:14;86911.20;;;22.40
76394;BMP180;65216;51.090;-115.352;2023-05-10T02:11:49;86900.60;;;22.40
76394;BMP180;65216;51.090;-115.352;2023-05-10T02:14:17;86918.40;;;22.32
76394;BMP180;65216;51.090;-115.352;2023-05-10T02:16:46;86924.80;;;22.30
76394;BMP180;65216;51.090;-115.352;2023-05-10T02:19:14;86924.60;;;22.30
76394;BMP180;65216;51.090;-115.352;2023-05-10T02:21:43;86921.80;;;22.30
76394;BMP180;65216;51.090;-115.352;2023-05-10T02:24:11;86934.00;;;22.30
76394;BMP180;65216;51.090;-115.352;2023-05-10T02:26:44;86939.40;;;22.30
76394;BMP180;65216;51.090;-115.352;2023-05-10T02:29:18;86942.80;;;22.28
76394;BMP180;65216;51.090;-115.352;2023-05-10T02:31:46;86958.60;;;22.22
76394;BMP180;65216;51.090;-115.352;2023-05-10T02:34:14;86962.00;;;22.20
76394;BMP180;65216;51.090;-115.352;2023-05-10T02:36:43;86968.80;;;22.20
76394;BMP180;65216;51.090;-115.352;2023-05-10T02:39:11;86969.00;;;22.20
76394;BMP180;65216;51.090;-115.352;2023-05-10T02:41:45;86972.40;;;22.20
76394;BMP180;65216;51.090;-115.352;2023-05-10T02:44:20;86995.20;;;22.20
76394;BMP180;65216;51.090;-115.352;2023-05-10T02:46:49;86967.00;;;22.16
76394;BMP180;65216;51.090;-115.352;2023-05-10T02:49:16;86981.80;;;22.10
76394;BMP180;65216;51.090;-115.352;2023-05-10T02:51:59;86994.40;;;22.10
76394;BMP180;65216;51.090;-115.352;2023-05-10T02:54:33;86999.40;;;22.10
76394;BMP180;65216;51.090;-115.352;2023-05-10T02:57:05;86990.40;;;22.10
76394;BMP180;65216;51.090;-115.352;2023-05-10T02:59:36;86983.40;;;22.10
76394;BMP180;65216;51.090;-115.352;2023-05-10T03:02:03;86996.40;;;22.10
76394;BMP180;65216;51.090;-115.352;2023-05-10T03:04:31;87002.20;;;22.10
76394;BMP180;65216;51.090;-115.352;2023-05-10T03:07:02;86996.40;;;22.10
76394;BMP180;65216;51.090;-115.352;2023-05-10T03:09:30;86991.80;;;22.10
76394;BMP180;65216;51.090;-115.352;2023-05-10T03:19:54;87026.60;;;22.00
76394;BMP180;65216;51.090;-115.352;2023-05-10T03:22:30;87021.20;;;22.00
76394;BMP180;65216;51.090;-115.352;2023-05-10T03:25:05;87028.40;;;22.00
76394;BMP180;65216;51.090;-115.352;2023-05-10T03:27:39;87029.40;;;22.00
76394;BMP180;65216;51.090;-115.352;2023-05-10T03:30:12;87031.80;;;22.00
76394;BMP180;65216;51.090;-115.352;2023-05-10T03:32:39;87034.40;;;22.00
76394;BMP180;65216;51.090;-115.352;2023-05-10T03:35:13;87035.80;;;22.00
76394;BMP180;65216;51.090;-115.352;2023-05-10T03:37:46;87036.00;;;22.00
76394;BMP180;65216;51.090;-115.352;2023-05-10T03:40:26;87040.20;;;21.94
76394;BMP180;65216;51.090;-115.352;2023-05-10T03:42:55;87045.20;;;21.90
76394;BMP180;65216;51.090;-115.352;2023-05-10T03:45:25;87051.60;;;21.90
76394;BMP180;65216;51.090;-115.352;2023-05-10T03:47:56;87047.60;;;21.90
76394;BMP180;65216;51.090;-115.352;2023-05-10T03:50:26;87049.00;;;21.90
76394;BMP180;65216;51.090;-115.352;2023-05-10T03:52:53;87053.20;;;21.90
76394;BMP180;65216;51.090;-115.352;2023-05-10T03:55:20;87057.80;;;21.86
76394;BMP180;65216;51.090;-115.352;2023-05-10T03:57:49;87056.80;;;21.80
76394;BMP180;65216;51.090;-115.352;2023-05-10T04:00:20;87053.00;;;21.80
76394;BMP180;65216;51.090;-115.352;2023-05-10T04:02:47;87060.20;;;21.80
76394;BMP180;65216;51.090;-115.352;2023-05-10T04:05:17;87069.60;;;21.80
76394;BMP180;65216;51.090;-115.352;2023-05-10T04:07:46;87065.40;;;21.80
76394;BMP180;65216;51.090;-115.352;2023-05-10T04:10:15;87067.80;;;21.76
76394;BMP180;65216;51.090;-115.352;2023-05-10T04:12:42;87057.60;;;21.70
76394;BMP180;65216;51.090;-115.352;2023-05-10T04:15:10;87069.40;;;21.70
76394;BMP180;65216;51.090;-115.352;2023-05-10T04:17:37;87067.80;;;21.70
76394;BMP180;65216;51.090;-115.352;2023-05-10T04:20:05;87066.40;;;21.70
76394;BMP180;65216;51.090;-115.352;2023-05-10T04:22:33;87058.80;;;21.62
76394;BMP180;65216;51.090;-115.352;2023-05-10T04:25:02;87062.20;;;21.60
76394;BMP180;65216;51.090;-115.352;2023-05-10T04:27:30;87060.00;;;21.60
76394;BMP180;65216;51.090;-115.352;2023-05-10T04:30:00;87061.40;;;21.60
76394;BMP180;65216;51.090;-115.352;2023-05-10T04:32:27;87064.40;;;21.60
76394;BMP180;65216;51.090;-115.352;2023-05-10T04:34:55;87061.00;;;21.60
76394;BMP180;65216;51.090;-115.352;2023-05-10T04:37:25;87061.40;;;21.60
76394;BMP180;65216;51.090;-115.352;2023-05-10T04:39:52;87062.80;;;21.58
76394;BMP180;65216;51.090;-115.352;2023-05-10T04:42:19;87064.40;;;21.50
76394;BMP180;65216;51.090;-115.352;2023-05-10T04:44:46;87059.40;;;21.50
76394;BMP180;65216;51.090;-115.352;2023-05-10T04:47:13;87060.00;;;21.50
76394;BMP180;65216;51.090;-115.352;2023-05-10T04:49:42;87060.20;;;21.50
76394;BMP180;65216;51.090;-115.352;2023-05-10T04:52:09;87059.80;;;21.50
76394;BMP180;65216;51.090;-115.352;2023-05-10T04:54:36;87061.60;;;21.50
76394;BMP180;65216;51.090;-115.352;2023-05-10T04:57:03;87059.60;;;21.50
76394;BMP180;65216;51.090;-115.352;2023-05-10T04:59:35;87059.20;;;21.50
76394;BMP180;65216;51.090;-115.352;2023-05-10T05:02:02;87057.40;;;21.46
76394;BMP180;65216;51.090;-115.352;2023-05-10T05:04:30;87056.20;;;21.40
76394;BMP180;65216;51.090;-115.352;2023-05-10T05:07:00;87055.80;;;21.40
76394;BMP180;65216;51.090;-115.352;2023-05-10T05:09:27;87055.80;;;21.40
76394;BMP180;65216;51.090;-115.352;2023-05-10T05:11:55;87056.20;;;21.40
76394;BMP180;65216;51.090;-115.352;2023-05-10T05:14:22;87059.80;;;21.40
76394;BMP180;65216;51.090;-115.352;2023-05-10T05:16:52;87055.00;;;21.40
76394;BMP180;65216;51.090;-115.352;2023-05-10T05:19:19;87058.40;;;21.40
76394;BMP180;65216;51.090;-115.352;2023-05-10T05:21:46;87058.80;;;21.40
76394;BMP180;65216;51.090;-115.352;2023-05-10T05:24:16;87062.80;;;21.40
76394;BMP180;65216;51.090;-115.352;2023-05-10T05:26:43;87058.80;;;21.40
76394;BMP180;65216;51.090;-115.352;2023-05-10T05:29:10;87059.80;;;21.40
76394;BMP180;65216;51.090;-115.352;2023-05-10T05:31:37;87059.40;;;21.38
76394;BMP180;65216;51.090;-115.352;2023-05-10T05:34:05;87060.00;;;21.32
76394;BMP180;65216;51.090;-115.352;2023-05-10T05:36:32;87062.80;;;21.30
76394;BMP180;65216;51.090;-115.352;2023-05-10T05:38:59;87062.60;;;21.30
76394;BMP180;65216;51.090;-115.352;2023-05-10T05:41:26;87062.40;;;21.30
76394;BMP180;65216;51.090;-115.352;2023-05-10T05:43:52;87060.80;;;21.30
76394;BMP180;65216;51.090;-115.352;2023-05-10T05:46:19;87059.40;;;21.30
76394;BMP180;65216;51.090;-115.352;2023-05-10T05:48:46;87060.60;;;21.30
76394;BMP180;65216;51.090;-115.352;2023-05-10T05:51:13;87057.80;;;21.30
76394;BMP180;65216;51.090;-115.352;2023-05-10T05:53:40;87061.00;;;21.30
76394;BMP180;65216;51.090;-115.352;2023-05-10T05:56:07;87059.20;;;21.30
76394;BMP180;65216;51.090;-115.352;2023-05-10T05:58:35;87064.60;;;21.30
76394;BMP180;65216;51.090;-115.352;2023-05-10T06:01:02;87062.60;;;21.30
76394;BMP180;65216;51.090;-115.352;2023-05-10T06:03:29;87065.00;;;21.30
76394;BMP180;65216;51.090;-115.352;2023-05-10T06:05:59;87059.60;;;21.30
76394;BMP180;65216;51.090;-115.352;2023-05-10T06:08:26;87061.00;;;21.30
76394;BMP180;65216;51.090;-115.352;2023-05-10T06:10:53;87060.60;;;21.28
76394;BMP180;65216;51.090;-115.352;2023-05-10T06:13:21;87067.20;;;21.22
76394;BMP180;65216;51.090;-115.352;2023-05-10T06:15:47;87064.20;;;21.20
76394;BMP180;65216;51.090;-115.352;2023-05-10T06:18:14;87065.40;;;21.20
76394;BMP180;65216;51.090;-115.352;2023-05-10T06:20:42;87065.40;;;21.20
76394;BMP180;65216;51.090;-115.352;2023-05-10T06:23:09;87070.40;;;21.20
76394;BMP180;65216;51.090;-115.352;2023-05-10T06:25:36;87069.80;;;21.20
76394;BMP180;65216;51.090;-115.352;2023-05-10T06:28:03;87069.40;;;21.20
76394;BMP180;65216;51.090;-115.352;2023-05-10T06:30:30;87069.00;;;21.20
76394;BMP180;65216;51.090;-115.352;2023-05-10T06:32:57;87066.60;;;21.20
76394;BMP180;65216;51.090;-115.352;2023-05-10T06:35:24;87068.60;;;21.20
76394;BMP180;65216;51.090;-115.352;2023-05-10T06:37:51;87067.20;;;21.20
76394;BMP180;65216;51.090;-115.352;2023-05-10T06:40:21;87063.00;;;21.20
76394;BMP180;65216;51.090;-115.352;2023-05-10T06:42:48;87060.80;;;21.20
76394;BMP180;65216;51.090;-115.352;2023-05-10T06:45:16;87059.80;;;21.20
76394;BMP180;65216;51.090;-115.352;2023-05-10T06:47:43;87063.40;;;21.20
76394;BMP180;65216;51.090;-115.352;2023-05-10T06:50:12;87064.60;;;21.20
76394;BMP180;65216;51.090;-115.352;2023-05-10T06:52:39;87066.20;;;21.20
76394;BMP180;65216;51.090;-115.352;2023-05-10T06:55:07;87069.40;;;21.20
76394;BMP180;65216;51.090;-115.352;2023-05-10T06:57:35;87069.80;;;21.20
76394;BMP180;65216;51.090;-115.352;2023-05-10T07:00:08;87068.20;;;21.20
76394;BMP180;65216;51.090;-115.352;2023-05-10T07:02:36;87069.20;;;21.20
76394;BMP180;65216;51.090;-115.352;2023-05-10T07:05:03;87070.80;;;21.20
76394;BMP180;65216;51.090;-115.352;2023-05-10T07:07:30;87074.80;;;21.20
76394;BMP180;65216;51.090;-115.352;2023-05-10T07:09:58;87073.60;;;21.18
76394;BMP180;65216;51.090;-115.352;2023-05-10T07:12:25;87074.00;;;21.20
76394;BMP180;65216;51.090;-115.352;2023-05-10T07:14:54;87068.00;;;21.20
76394;BMP180;65216;51.090;-115.352;2023-05-10T07:17:21;87073.60;;;21.20
76394;BMP180;65216;51.090;-115.352;2023-05-10T07:19:48;87073.20;;;21.18
76394;BMP180;65216;51.090;-115.352;2023-05-10T07:22:16;87076.20;;;21.12
76394;BMP180;65216;51.090;-115.352;2023-05-10T07:24:44;87071.80;;;21.12
76394;BMP180;65216;51.090;-115.352;2023-05-10T07:27:10;87075.20;;;21.12
76394;BMP180;65216;51.090;-115.352;2023-05-10T07:29:38;87072.60;;;21.12
76394;BMP180;65216;51.090;-115.352;2023-05-10T07:32:10;87072.80;;;21.10
76394;BMP180;65216;51.090;-115.352;2023-05-10T07:34:37;87071.60;;;21.10
76394;BMP180;65216;51.090;-115.352;2023-05-10T07:37:05;87070.00;;;21.10
76394;BMP180;65216;51.090;-115.352;2023-05-10T07:39:32;87074.40;;;21.10
76394;BMP180;65216;51.090;-115.352;2023-05-10T07:42:02;87073.20;;;21.10
76394;BMP180;65216;51.090;-115.352;2023-05-10T07:44:29;87072.20;;;21.10
76394;BMP180;65216;51.090;-115.352;2023-05-10T07:46:59;87069.20;;;21.10
76394;BMP180;65216;51.090;-115.352;2023-05-10T07:49:26;87066.00;;;21.10
76394;BMP180;65216;51.090;-115.352;2023-05-10T07:51:53;87061.20;;;21.10
76394;BMP180;65216;51.090;-115.352;2023-05-10T07:54:23;87061.20;;;21.10
76394;BMP180;65216;51.090;-115.352;2023-05-10T07:56:51;87060.80;;;21.10
76394;BMP180;65216;51.090;-115.352;2023-05-10T07:59:21;87065.00;;;21.10
76394;BMP180;65216;51.090;-115.352;2023-05-10T08:01:49;87065.60;;;21.10
76394;BMP180;65216;51.090;-115.352;2023-05-10T08:04:16;87065.80;;;21.10
76394;BMP180;65216;51.090;-115.352;2023-05-10T08:06:43;87061.40;;;21.10
76394;BMP180;65216;51.090;-115.352;2023-05-10T08:09:10;87066.80;;;21.10
76394;BMP180;65216;51.090;-115.352;2023-05-10T08:11:37;87070.00;;;21.10
76394;BMP180;65216;51.090;-115.352;2023-05-10T08:14:04;87070.40;;;21.10
76394;BMP180;65216;51.090;-115.352;2023-05-10T08:16:34;87068.00;;;21.10
76394;BMP180;65216;51.090;-115.352;2023-05-10T08:19:01;87068.00;;;21.08
76394;BMP180;65216;51.090;-115.352;2023-05-10T08:21:28;87069.20;;;21.10
76394;BMP180;65216;51.090;-115.352;2023-05-10T08:23:55;87074.20;;;21.10
76394;BMP180;65216;51.090;-115.352;2023-05-10T08:26:25;87073.40;;;21.10
76394;BMP180;65216;51.090;-115.352;2023-05-10T08:28:52;87070.80;;;21.10
76394;BMP180;65216;51.090;-115.352;2023-05-10T08:31:20;87075.80;;;21.10
76394;BMP180;65216;51.090;-115.352;2023-05-10T08:33:47;87075.60;;;21.10
76394;BMP180;65216;51.090;-115.352;2023-05-10T08:36:14;87078.40;;;21.10
76394;BMP180;65216;51.090;-115.352;2023-05-10T08:38:50;87076.20;;;21.10
76394;BMP180;65216;51.090;-115.352;2023-05-10T08:41:20;87072.00;;;21.10
76394;BMP180;65216;51.090;-115.352;2023-05-10T08:43:49;87078.60;;;21.10
76394;BMP180;65216;51.090;-115.352;2023-05-10T08:46:19;87075.00;;;21.10
76394;BMP180;65216;51.090;-115.352;2023-05-10T08:48:49;87074.40;;;21.10
76394;BMP180;65216;51.090;-115.352;2023-05-10T08:51:25;87073.80;;;21.10
76394;BMP180;65216;51.090;-115.352;2023-05-10T08:53:54;87071.80;;;21.10
76394;BMP180;65216;51.090;-115.352;2023-05-10T08:56:21;87067.60;;;21.10
76394;BMP180;65216;51.090;-115.352;2023-05-10T08:58:48;87074.60;;;21.10
76394;BMP180;65216;51.090;-115.352;2023-05-10T09:01:18;87074.20;;;21.10
76394;BMP180;65216;51.090;-115.352;2023-05-10T09:03:49;87077.40;;;21.10
76394;BMP180;65216;51.090;-115.352;2023-05-10T09:06:17;87074.60;;;21.10
76394;BMP180;65216;51.090;-115.352;2023-05-10T09:08:45;87073.00;;;21.10
76394;BMP180;65216;51.090;-115.352;2023-05-10T09:11:13;87073.80;;;21.10
76394;BMP180;65216;51.090;-115.352;2023-05-10T09:13:41;87069.40;;;21.10
76394;BMP180;65216;51.090;-115.352;2023-05-10T09:16:10;87065.20;;;21.10
76394;BMP180;65216;51.090;-115.352;2023-05-10T09:18:37;87065.80;;;21.10
76394;BMP180;65216;51.090;-115.352;2023-05-10T09:21:04;87066.80;;;21.10
76394;BMP180;65216;51.090;-115.352;2023-05-10T09:23:31;87070.80;;;21.10
76394;BMP180;65216;51.090;-115.352;2023-05-10T09:26:05;87066.40;;;21.10
76394;BMP180;65216;51.090;-115.352;2023-05-10T09:28:34;87071.60;;;21.10
76394;BMP180;65216;51.090;-115.352;2023-05-10T09:31:19;87072.20;;;21.10
76394;BMP180;65216;51.090;-115.352;2023-05-10T09:33:51;87068.00;;;21.10
76394;BMP180;65216;51.090;-115.352;2023-05-10T09:36:18;87069.20;;;21.10
76394;BMP180;65216;51.090;-115.352;2023-05-10T09:38:52;87072.20;;;21.10
76394;BMP180;65216;51.090;-115.352;2023-05-10T09:41:22;87071.40;;;21.10
76394;BMP180;65216;51.090;-115.352;2023-05-10T09:43:50;87070.20;;;21.10
76394;BMP180;65216;51.090;-115.352;2023-05-10T09:46:23;87070.20;;;21.10
76394;BMP180;65216;51.090;-115.352;2023-05-10T09:48:52;87069.20;;;21.10
76394;BMP180;65216;51.090;-115.352;2023-05-10T09:51:24;87072.80;;;21.10
76394;BMP180;65216;51.090;-115.352;2023-05-10T09:54:15;87074.20;;;21.10
76394;BMP180;65216;51.090;-115.352;2023-05-10T09:56:42;87068.40;;;21.10
76394;BMP180;65216;51.090;-115.352;2023-05-10T09:59:12;87069.60;;;21.10
76394;BMP180;65216;51.090;-115.352;2023-05-10T10:01:40;87064.40;;;21.10
76394;BMP180;65216;51.090;-115.352;2023-05-10T10:04:09;87067.20;;;21.10
76394;BMP180;65216;51.090;-115.352;2023-05-10T10:06:40;87067.80;;;21.10
76394;BMP180;65216;51.090;-115.352;2023-05-10T10:09:08;87067.40;;;21.10
76394;BMP180;65216;51.090;-115.352;2023-05-10T10:11:37;87066.60;;;21.12
76394;BMP180;65216;51.090;-115.352;2023-05-10T10:14:07;87065.40;;;21.10
76394;BMP180;65216;51.090;-115.352;2023-05-10T10:16:37;87061.00;;;21.10
76394;BMP180;65216;51.090;-115.352;2023-05-10T10:19:04;87060.60;;;21.10
76394;BMP180;65216;51.090;-115.352;2023-05-10T10:21:31;87070.80;;;21.12
76394;BMP180;65216;51.090;-115.352;2023-05-10T10:23:59;87070.60;;;21.14
76394;BMP180;65216;51.090;-115.352;2023-05-10T10:26:33;87071.40;;;21.10
76394;BMP180;65216;51.090;-115.352;2023-05-10T10:29:36;87068.20;;;21.10
76394;BMP180;65216;51.090;-115.352;2023-05-10T10:32:33;87070.00;;;21.10
76394;BMP180;65216;51.090;-115.352;2023-05-10T10:35:03;87070.40;;;21.10
76394;BMP180;65216;51.090;-115.352;2023-05-10T10:37:47;87072.00;;;21.10
76394;BMP180;65216;51.090;-115.352;2023-05-10T10:40:32;87069.00;;;21.10
76394;BMP180;65216;51.090;-115.352;2023-05-10T10:43:29;87071.40;;;21.10
76394;BMP180;65216;51.090;-115.352;2023-05-10T10:46:16;87069.60;;;21.10
76394;BMP180;65216;51.090;-115.352;2023-05-10T10:49:09;87072.60;;;21.10
76394;BMP180;65216;51.090;-115.352;2023-05-10T10:51:39;87076.80;;;21.10
76394;BMP180;65216;51.090;-115.352;2023-05-10T10:54:10;87078.20;;;21.04
76394;BMP180;65216;51.090;-115.352;2023-05-10T10:56:38;87081.20;;;21.00
76394;BMP180;65216;51.090;-115.352;2023-05-10T10:59:05;87081.80;;;21.00
76394;BMP180;65216;51.090;-115.352;2023-05-10T11:01:35;87088.80;;;21.00
76394;BMP180;65216;51.090;-115.352;2023-05-10T11:06:35;87089.40;;;21.00
76394;BMP180;65216;51.090;-115.352;2023-05-10T11:09:11;87089.20;;;21.00
76394;BMP180;65216;51.090;-115.352;2023-05-10T11:11:55;87089.00;;;21.00
76394;BMP180;65216;51.090;-115.352;2023-05-10T11:14:22;87094.60;;;21.00
76394;BMP180;65216;51.090;-115.352;2023-05-10T11:16:50;87097.60;;;21.00
76394;BMP180;65216;51.090;-115.352;2023-05-10T11:19:18;87100.00;;;21.00
76394;BMP180;65216;51.090;-115.352;2023-05-10T11:22:11;87104.60;;;21.00
76394;BMP180;65216;51.090;-115.352;2023-05-10T11:24:57;87101.40;;;20.92
76394;BMP180;65216;51.090;-115.352;2023-05-10T11:27:29;87104.00;;;20.90
76394;BMP180;65216;51.090;-115.352;2023-05-10T11:29:56;87106.80;;;20.90
76394;BMP180;65216;51.090;-115.352;2023-05-10T11:32:23;87108.00;;;20.90
76394;BMP180;65216;51.090;-115.352;2023-05-10T11:34:57;87108.60;;;20.90
76394;BMP180;65216;51.090;-115.352;2023-05-10T11:37:28;87108.60;;;20.90
76394;BMP180;65216;51.090;-115.352;2023-05-10T11:39:58;87109.20;;;20.90
76394;BMP180;65216;51.090;-115.352;2023-05-10T11:42:26;87112.60;;;20.90
76394;BMP180;65216;51.090;-115.352;2023-05-10T11:44:54;87118.20;;;20.90
76394;BMP180;65216;51.090;-115.352;2023-05-10T11:47:21;87114.60;;;20.90
76394;BMP180;65216;51.090;-115.352;2023-05-10T11:49:48;87115.80;;;20.90
76394;BMP180;65216;51.090;-115.352;2023-05-10T11:52:19;87114.40;;;20.90
76394;BMP180;65216;51.090;-115.352;2023-05-10T11:54:52;87118.40;;;20.90
76394;BMP180;65216;51.090;-115.352;2023-05-10T11:57:25;87117.40;;;20.90
76394;BMP180;65216;51.090;-115.352;2023-05-10T11:59:57;87112.60;;;20.90
76394;BMP180;65216;51.090;-115.352;2023-05-10T12:02:24;87119.00;;;20.90
76394;BMP180;65216;51.090;-115.352;2023-05-10T12:04:56;87121.20;;;20.90
76394;BMP180;65216;51.090;-115.352;2023-05-10T12:07:23;87125.40;;;20.90
76394;BMP180;65216;51.090;-115.352;2023-05-10T12:10:15;87118.20;;;20.90
76394;BMP180;65216;51.090;-115.352;2023-05-10T12:12:48;87124.40;;;20.90
76394;BMP180;65216;51.090;-115.352;2023-05-10T12:15:24;87122.20;;;20.90
76394;BMP180;65216;51.090;-115.352;2023-05-10T12:17:51;87124.20;;;20.90
76394;BMP180;65216;51.090;-115.352;2023-05-10T12:20:24;87121.80;;;20.90
76394;BMP180;65216;51.090;-115.352;2023-05-10T12:22:58;87126.80;;;20.90
76394;BMP180;65216;51.090;-115.352;2023-05-10T12:25:37;87118.40;;;20.90
76394;BMP180;65216;51.090;-115.352;2023-05-10T12:28:07;87125.40;;;20.90
76394;BMP180;65216;51.090;-115.352;2023-05-10T12:30:36;87127.20;;;20.90
76394;BMP180;65216;51.090;-115.352;2023-05-10T12:33:10;87125.80;;;20.90
76394;BMP180;65216;51.090;-115.352;2023-05-10T12:35:50;87124.80;;;20.90
76394;BMP180;65216;51.090;-115.352;2023-05-10T12:38:34;87121.40;;;20.92
76394;BMP180;65216;51.090;-115.352;2023-05-10T12:41:05;87121.80;;;20.94
76394;BMP180;65216;51.090;-115.352;2023-05-10T12:43:34;87122.40;;;20.90
76394;BMP180;65216;51.090;-115.352;2023-05-10T12:46:11;87123.60;;;20.90
76394;BMP180;65216;51.090;-115.352;2023-05-10T12:48:41;87117.00;;;20.96
76394;BMP180;65216;51.090;-115.352;2023-05-10T12:51:08;87122.20;;;20.90
76394;BMP180;65216;51.090;-115.352;2023-05-10T12:53:39;87125.00;;;20.90
76394;BMP180;65216;51.090;-115.352;2023-05-10T12:56:09;87118.40;;;20.90
76394;BMP180;65216;51.090;-115.352;2023-05-10T12:58:36;87115.20;;;20.90
76394;BMP180;65216;51.090;-115.352;2023-05-10T13:01:05;87120.40;;;20.90
76394;BMP180;65216;51.090;-115.352;2023-05-10T13:03:32;87114.40;;;20.90
76394;BMP180;65216;51.090;-115.352;2023-05-10T13:05:59;87119.00;;;20.90
76394;BMP180;65216;51.090;-115.352;2023-05-10T13:08:26;87122.00;;;20.90
76394;BMP180;65216;51.090;-115.352;2023-05-10T13:10:59;87123.80;;;20.90
76394;BMP180;65216;51.090;-115.352;2023-05-10T13:13:26;87116.40;;;20.90
76394;BMP180;65216;51.090;-115.352;2023-05-10T13:15:56;87117.40;;;20.90
76394;BMP180;65216;51.090;-115.352;2023-05-10T13:18:23;87122.60;;;20.90
76394;BMP180;65216;51.090;-115.352;2023-05-10T13:20:50;87126.60;;;20.90
76394;BMP180;65216;51.090;-115.352;2023-05-10T13:23:23;87131.00;;;20.90
76394;BMP180;65216;51.090;-115.352;2023-05-10T13:25:50;87131.60;;;20.90
76394;BMP180;65216;51.090;-115.352;2023-05-10T13:28:17;87136.40;;;20.90
76394;BMP180;65216;51.090;-115.352;2023-05-10T13:30:47;87135.00;;;20.90
76394;BMP180;65216;51.090;-115.352;2023-05-10T13:33:14;87135.60;;;20.90
76394;BMP180;65216;51.090;-115.352;2023-05-10T13:35:41;87137.80;;;20.90
76394;BMP180;65216;51.090;-115.352;2023-05-10T13:38:10;87139.40;;;20.90
76394;BMP180;65216;51.090;-115.352;2023-05-10T13:40:37;87136.80;;;20.92
76394;BMP180;65216;51.090;-115.352;2023-05-10T13:43:06;87145.20;;;20.92
76394;BMP180;65216;51.090;-115.352;2023-05-10T13:45:33;87139.00;;;20.92
76394;BMP180;65216;51.090;-115.352;2023-05-10T13:48:00;87137.80;;;20.92
76394;BMP180;65216;51.090;-115.352;2023-05-10T13:50:30;87137.40;;;21.00
76394;BMP180;65216;51.090;-115.352;2023-05-10T13:52:57;87142.80;;;21.00
76394;BMP180;65216;51.090;-115.352;2023-05-10T13:55:24;87142.60;;;20.98
76394;BMP180;65216;51.090;-115.352;2023-05-10T13:57:51;87141.80;;;20.94
76394;BMP180;65216;51.090;-115.352;2023-05-10T14:00:18;87144.80;;;20.90
76394;BMP180;65216;51.090;-115.352;2023-05-10T14:02:45;87140.60;;;21.00
76394;BMP180;65216;51.090;-115.352;2023-05-10T14:05:12;87142.60;;;21.00
76394;BMP180;65216;51.090;-115.352;2023-05-10T14:07:39;87141.40;;;21.00
76394;BMP180;65216;51.090;-115.352;2023-05-10T14:10:09;87144.80;;;21.00